createdAt,value
2023-04-18T05:03:09.273Z,602.00
2023-04-18T05:04:10.022Z,601.00
2023-04-18T05:05:09.994Z,600.00
2023-04-18T05:06:08.992Z,601.00
2023-04-18T05:07:10.017Z,602.00
2023-04-18T05:08:10.022Z,601.00
2023-04-18T05:09:09.068Z,598.00
2023-04-18T05:10:10.140Z,598.00
2023-04-18T05:11:09.174Z,597.00
2023-04-18T05:12:09.182Z,598.00
2023-04-18T05:13:09.231Z,596.00
2023-04-18T05:14:10.216Z,594.00
2023-04-18T05:15:10.250Z,591.00
2023-04-18T05:16:10.274Z,592.00
2023-04-18T05:17:09.252Z,594.00
2023-04-18T05:18:10.281Z,595.00
2023-04-18T05:19:10.240Z,597.00
2023-04-18T05:20:10.290Z,598.00
2023-04-18T05:21:10.285Z,600.00
2023-04-18T05:22:09.288Z,602.00
2023-04-18T05:23:09.304Z,602.00
2023-04-18T05:24:10.284Z,604.00
2023-04-18T05:25:09.313Z,605.00
2023-04-18T05:26:09.324Z,605.00
2023-04-18T05:27:10.321Z,604.00
2023-04-18T05:28:10.340Z,603.00
2023-04-18T05:29:10.355Z,604.00
2023-04-18T05:30:10.349Z,607.00
2023-04-18T05:31:10.472Z,608.00
2023-04-18T05:32:10.358Z,610.00
2023-04-18T05:33:10.362Z,611.00
2023-04-18T05:34:09.387Z,612.00
2023-04-18T05:35:09.358Z,612.00
2023-04-18T05:36:10.367Z,613.00
2023-04-18T05:37:09.350Z,613.00
2023-04-18T05:38:10.357Z,612.00
2023-04-18T05:39:09.383Z,614.00
2023-04-18T05:40:10.389Z,614.00
2023-04-18T05:41:10.390Z,613.00
2023-04-18T05:42:09.413Z,612.00
2023-04-18T05:43:10.413Z,616.00
2023-04-18T05:44:10.428Z,618.00
2023-04-18T05:45:09.424Z,618.00
2023-04-18T05:46:10.523Z,620.00
2023-04-18T05:47:10.491Z,621.00
2023-04-18T05:48:09.633Z,618.00
2023-04-18T05:49:10.539Z,619.00
2023-04-18T05:50:10.586Z,622.00
2023-04-18T05:51:11.087Z,624.00
2023-04-18T05:52:10.574Z,624.00
2023-04-18T05:53:09.569Z,624.00
2023-04-18T05:54:09.575Z,622.00
2023-04-18T05:55:09.613Z,624.00
2023-04-18T05:56:09.555Z,623.00
2023-04-18T05:57:10.575Z,624.00
2023-04-18T05:58:09.569Z,624.00
2023-04-18T05:59:09.588Z,624.00
2023-04-18T06:00:10.609Z,622.00
2023-04-18T06:01:10.594Z,623.00
2023-04-18T06:02:10.786Z,621.00
2023-04-18T06:03:11.285Z,619.00
2023-04-18T06:04:10.741Z,621.00
2023-04-18T06:05:10.919Z,620.00
2023-04-18T06:06:10.758Z,620.00
2023-04-18T06:07:09.646Z,626.00
2023-04-18T06:08:10.651Z,626.00
2023-04-18T06:09:10.681Z,625.00
2023-04-18T06:10:10.700Z,628.00
2023-04-18T06:11:10.704Z,629.00
2023-04-18T06:12:10.689Z,628.00
2023-04-18T06:13:09.666Z,626.00
2023-04-18T06:14:10.714Z,626.00
2023-04-18T06:15:10.728Z,624.00
2023-04-18T06:16:09.753Z,626.00
2023-04-18T06:17:10.732Z,626.00
2023-04-18T06:18:10.772Z,626.00
2023-04-18T06:19:10.754Z,629.00
2023-04-18T06:20:10.797Z,633.00
2023-04-18T06:21:10.794Z,634.00
2023-04-18T06:22:10.848Z,638.00
2023-04-18T06:23:09.853Z,644.00
2023-04-18T06:24:10.843Z,650.00
2023-04-18T06:25:10.863Z,657.00
2023-04-18T06:26:10.856Z,659.00
2023-04-18T06:27:20.716Z,663.00
2023-04-18T06:28:10.869Z,666.00
2023-04-18T06:29:10.844Z,668.00
2023-04-18T06:30:10.841Z,671.00
2023-04-18T06:31:10.854Z,674.00
2023-04-18T06:32:09.858Z,677.00
2023-04-18T06:33:10.835Z,679.00
2023-04-18T06:34:10.892Z,680.00
2023-04-18T06:35:09.823Z,683.00
2023-04-18T06:36:10.817Z,691.00
2023-04-18T06:37:10.809Z,694.00
2023-04-18T06:38:09.895Z,699.00
2023-04-18T06:39:10.786Z,708.00
2023-04-18T06:40:10.773Z,713.00
2023-04-18T06:41:09.784Z,715.00
2023-04-18T06:42:10.769Z,718.00
2023-04-18T06:43:09.838Z,722.00
2023-04-18T06:44:10.746Z,728.00
2023-04-18T06:45:10.749Z,732.00
2023-04-18T06:46:09.785Z,737.00
2023-04-18T06:47:10.725Z,737.00
2023-04-18T06:48:10.866Z,739.00
2023-04-18T06:49:10.708Z,740.00
2023-04-18T06:50:10.702Z,744.00
2023-04-18T06:51:10.700Z,749.00
2023-04-18T06:52:10.687Z,752.00
2023-04-18T06:53:10.684Z,757.00
2023-04-18T06:54:09.690Z,765.00
2023-04-18T06:55:09.663Z,770.00
2023-04-18T06:56:11.111Z,775.00
2023-04-18T06:57:10.655Z,786.00
2023-04-18T06:58:10.650Z,803.00
2023-04-18T06:59:10.725Z,811.00
2023-04-18T07:00:10.625Z,817.00
2023-04-18T07:01:10.767Z,819.00
2023-04-18T07:02:10.679Z,821.00
2023-04-18T07:03:11.138Z,822.00
2023-04-18T07:04:10.907Z,824.00
2023-04-18T07:05:09.602Z,827.00
2023-04-18T07:06:09.598Z,830.00
2023-04-18T07:07:09.593Z,834.00
2023-04-18T07:08:09.600Z,835.00
2023-04-18T07:09:11.578Z,840.00
2023-04-18T07:10:10.607Z,842.00
2023-04-18T07:11:10.570Z,844.00
2023-04-18T07:12:10.553Z,848.00
2023-04-18T07:13:09.554Z,852.00
2023-04-18T07:14:09.528Z,852.00
2023-04-18T07:15:09.544Z,855.00
2023-04-18T07:16:10.575Z,858.00
2023-04-18T07:17:10.588Z,863.00
2023-04-18T07:18:10.534Z,869.00
2023-04-18T07:19:10.511Z,871.00
2023-04-18T07:20:09.504Z,871.00
2023-04-18T07:21:09.499Z,876.00
2023-04-18T07:22:10.479Z,879.00
2023-04-18T07:23:10.506Z,884.00
2023-04-18T07:24:09.475Z,887.00
2023-04-18T07:25:10.464Z,891.00
2023-04-18T07:26:10.564Z,897.00
2023-04-18T07:27:10.451Z,902.00
2023-04-18T07:28:10.490Z,905.00
2023-04-18T07:29:10.463Z,909.00
2023-04-18T07:30:10.420Z,910.00
2023-04-18T07:31:09.461Z,915.00
2023-04-18T07:32:09.408Z,919.00
2023-04-18T07:33:09.393Z,922.00
2023-04-18T07:34:09.392Z,925.00
2023-04-18T07:35:09.385Z,931.00
2023-04-18T07:36:10.396Z,936.00
2023-04-18T07:37:10.721Z,938.00
2023-04-18T07:38:10.391Z,939.00
2023-04-18T07:39:10.390Z,944.00
2023-04-18T07:40:10.349Z,945.00
2023-04-18T07:41:10.349Z,945.00
2023-04-18T07:42:10.370Z,952.00
2023-04-18T07:43:10.328Z,956.00
2023-04-18T07:44:10.376Z,955.00
2023-04-18T07:45:10.324Z,958.00
2023-04-18T07:46:09.329Z,959.00
2023-04-18T07:47:10.464Z,967.00
2023-04-18T07:48:10.368Z,970.00
2023-04-18T07:49:10.357Z,975.00
2023-04-18T07:50:09.392Z,982.00
2023-04-18T07:51:09.618Z,986.00
2023-04-18T07:52:09.373Z,1002.00
2023-04-18T07:53:09.381Z,1029.00
2023-04-18T07:54:10.393Z,1037.00
2023-04-18T07:55:09.402Z,1079.00
2023-04-18T07:56:10.428Z,1127.00
2023-04-18T07:57:10.413Z,1143.00
2023-04-18T07:58:10.724Z,1161.00
2023-04-18T07:59:10.491Z,1185.00
2023-04-18T08:00:10.560Z,1192.00
2023-04-18T08:01:10.600Z,1200.00
2023-04-18T08:02:09.712Z,1216.00
2023-04-18T08:03:10.938Z,1223.00
2023-04-18T08:04:10.870Z,1234.00
2023-04-18T08:05:09.971Z,1250.00
2023-04-18T08:06:10.930Z,1267.00
2023-04-18T08:07:10.910Z,1273.00
2023-04-18T08:08:10.930Z,1284.00
2023-04-18T08:09:10.977Z,1298.00
2023-04-18T08:10:10.987Z,1314.00
2023-04-18T08:11:11.030Z,1351.00
2023-04-18T08:12:11.083Z,1368.00
2023-04-18T08:13:11.106Z,1390.00
2023-04-18T08:14:11.187Z,1393.00
2023-04-18T08:15:11.195Z,1398.00
2023-04-18T08:16:11.299Z,1410.00
2023-04-18T08:17:11.253Z,1410.00
2023-04-18T08:18:10.311Z,1409.00
2023-04-18T08:19:11.521Z,1402.00
2023-04-18T08:20:10.350Z,1403.00
2023-04-18T08:21:11.359Z,1397.00
2023-04-18T08:22:10.364Z,1374.00
2023-04-18T08:23:12.831Z,1412.00
2023-04-18T08:24:11.358Z,1425.00
2023-04-18T08:25:10.373Z,1435.00
2023-04-18T08:26:11.375Z,1371.00
2023-04-18T08:27:11.348Z,1438.00
2023-04-18T08:28:11.335Z,1447.00
2023-04-18T08:29:11.548Z,1436.00
2023-04-18T08:30:10.442Z,1429.00
2023-04-18T08:31:10.351Z,1425.00
2023-04-18T08:32:10.379Z,1427.00
2023-04-18T08:33:11.311Z,1429.00
2023-04-18T08:34:11.288Z,1442.00
2023-04-18T08:35:11.287Z,1457.00
2023-04-18T08:36:11.279Z,1458.00
2023-04-18T08:37:11.283Z,1466.00
2023-04-18T08:38:11.279Z,1474.00
2023-04-18T08:39:11.503Z,1488.00
2023-04-18T08:40:11.282Z,1474.00
2023-04-18T08:41:10.602Z,1477.00
2023-04-18T08:42:10.252Z,1475.00
2023-04-18T08:43:11.230Z,1451.00
2023-04-18T08:44:11.274Z,1454.00
2023-04-18T08:45:11.204Z,1478.00
2023-04-18T08:46:11.274Z,1484.00
2023-04-18T08:47:10.212Z,1481.00
2023-04-18T08:48:11.188Z,1479.00
2023-04-18T08:49:12.115Z,1472.00
2023-04-18T08:50:11.259Z,1467.00
2023-04-18T08:51:10.175Z,1438.00
2023-04-18T08:52:11.246Z,1391.00
2023-04-18T08:53:11.149Z,1378.00
2023-04-18T08:54:10.258Z,1368.00
2023-04-18T08:55:11.142Z,1370.00
2023-04-18T08:56:11.134Z,1391.00
2023-04-18T08:57:10.129Z,1409.00
2023-04-18T08:58:10.134Z,1420.00
2023-04-18T08:59:10.098Z,1426.00
2023-04-18T09:00:10.144Z,1422.00
2023-04-18T09:01:10.150Z,1422.00
2023-04-18T09:02:11.207Z,1430.00
2023-04-18T09:03:11.148Z,1440.00
2023-04-18T09:04:10.124Z,1452.00
2023-04-18T09:05:11.069Z,1465.00
2023-04-18T09:06:11.086Z,1468.00
2023-04-18T09:07:10.061Z,1470.00
2023-04-18T09:08:11.042Z,1483.00
2023-04-18T09:09:11.209Z,1482.00
2023-04-18T09:10:10.034Z,1490.00
2023-04-18T09:11:11.013Z,1491.00
2023-04-18T09:12:11.027Z,1468.00
2023-04-18T09:13:10.025Z,1461.00
2023-04-18T09:14:10.004Z,1460.00
2023-04-18T09:15:11.023Z,1472.00
2023-04-18T09:16:10.006Z,1445.00
2023-04-18T09:17:09.985Z,1456.00
2023-04-18T09:18:10.077Z,1467.00
2023-04-18T09:19:11.191Z,1476.00
2023-04-18T09:20:09.975Z,1489.00
2023-04-18T09:21:10.964Z,1494.00
2023-04-18T09:22:09.961Z,1493.00
2023-04-18T09:23:11.334Z,1498.00
2023-04-18T09:24:11.265Z,1501.00
2023-04-18T09:25:10.946Z,1507.00
2023-04-18T09:26:10.922Z,1512.00
2023-04-18T09:27:09.941Z,1515.00
2023-04-18T09:28:10.964Z,1538.00
2023-04-18T09:29:11.044Z,1551.00
2023-04-18T09:30:10.028Z,1559.00
2023-04-18T09:31:10.127Z,1563.00
2023-04-18T09:32:10.094Z,1578.00
2023-04-18T09:33:11.115Z,1579.00
2023-04-18T09:34:11.396Z,1573.00
2023-04-18T09:35:10.192Z,1581.00
2023-04-18T09:36:10.260Z,1585.00
2023-04-18T09:37:10.399Z,1590.00
2023-04-18T09:38:11.324Z,1598.00
2023-04-18T09:39:11.358Z,1649.00
2023-04-18T09:40:11.364Z,1667.00
2023-04-18T09:41:11.379Z,1705.00
2023-04-18T09:42:10.377Z,1713.00
2023-04-18T09:43:10.387Z,1703.00
2023-04-18T09:44:14.402Z,1689.00
2023-04-18T09:45:11.433Z,1599.00
2023-04-18T09:46:11.516Z,1632.00
2023-04-18T09:47:11.627Z,1529.00
2023-04-18T09:48:10.431Z,1546.00
2023-04-18T09:49:11.084Z,1543.00
2023-04-18T09:50:10.441Z,1596.00
2023-04-18T09:51:11.396Z,1535.00
2023-04-18T09:52:10.633Z,1531.00
2023-04-18T09:53:10.367Z,1432.00
2023-04-18T09:54:11.513Z,1424.00
2023-04-18T09:55:10.388Z,1435.00
2023-04-18T09:56:11.364Z,1423.00
2023-04-18T09:57:11.337Z,1405.00
2023-04-18T09:58:10.356Z,1400.00
2023-04-18T09:59:11.376Z,1395.00
2023-04-18T10:00:10.612Z,1390.00
2023-04-18T10:01:11.344Z,1386.00
2023-04-18T10:02:10.340Z,1382.00
2023-04-18T10:03:11.419Z,1379.00
2023-04-18T10:04:10.326Z,1375.00
2023-04-18T10:05:11.335Z,1367.00
2023-04-18T10:06:11.310Z,1361.00
2023-04-18T10:07:10.262Z,1356.00
2023-04-18T10:08:10.264Z,1350.00
2023-04-18T10:09:11.289Z,1350.00
2023-04-18T10:10:11.252Z,1344.00
2023-04-18T10:11:11.298Z,1342.00
2023-04-18T10:12:11.254Z,1340.00
2023-04-18T10:13:11.245Z,1330.00
2023-04-18T10:14:11.235Z,1322.00
2023-04-18T10:15:11.222Z,1323.00
2023-04-18T10:16:11.317Z,1321.00
2023-04-18T10:17:11.198Z,1319.00
2023-04-18T10:18:11.269Z,1316.00
2023-04-18T10:19:10.175Z,1315.00
2023-04-18T10:20:10.233Z,1314.00
2023-04-18T10:21:10.177Z,1311.00
2023-04-18T10:22:10.176Z,1309.00
2023-04-18T10:23:10.154Z,1303.00
2023-04-18T10:24:10.158Z,1302.00
2023-04-18T10:25:10.144Z,1304.00
2023-04-18T10:26:11.170Z,1304.00
2023-04-18T10:27:11.155Z,1303.00
2023-04-18T10:28:11.175Z,1303.00
2023-04-18T10:29:11.251Z,1309.00
2023-04-18T10:30:10.212Z,1312.00
2023-04-18T10:31:11.307Z,1314.00
2023-04-18T10:32:11.249Z,1318.00
2023-04-18T10:33:18.492Z,1322.00
2023-04-18T10:34:11.254Z,1331.00
2023-04-18T10:35:10.235Z,1346.00
2023-04-18T10:36:11.232Z,1349.00
2023-04-18T10:37:11.233Z,1342.00
2023-04-18T10:38:11.252Z,1339.00
2023-04-18T10:39:11.213Z,1335.00
2023-04-18T10:40:11.248Z,1337.00
2023-04-18T10:41:11.196Z,1338.00
2023-04-18T10:42:11.663Z,1351.00
2023-04-18T10:43:10.190Z,1361.00
2023-04-18T10:44:11.177Z,1360.00
2023-04-18T10:45:11.176Z,1362.00
2023-04-18T10:46:24.017Z,1363.00
2023-04-18T10:47:11.696Z,1364.00
2023-04-18T10:48:11.188Z,1363.00
2023-04-18T10:49:11.283Z,1372.00
2023-04-18T10:50:10.146Z,1379.00
2023-04-18T10:51:11.132Z,1377.00
2023-04-18T10:52:11.740Z,1380.00
2023-04-18T10:53:11.115Z,1389.00
2023-04-18T10:54:10.141Z,1399.00
2023-04-18T10:55:11.108Z,1403.00
2023-04-18T10:56:11.099Z,1405.00
2023-04-18T10:57:10.089Z,1404.00
2023-04-18T10:58:11.078Z,1402.00
2023-04-18T10:59:10.068Z,1396.00
2023-04-18T11:00:11.094Z,1391.00
2023-04-18T11:01:11.185Z,1389.00
2023-04-18T11:02:11.093Z,1382.00
2023-04-18T11:03:11.198Z,1374.00
2023-04-18T11:04:11.250Z,1335.00
2023-04-18T11:05:11.028Z,1331.00
2023-04-18T11:06:10.023Z,1317.00
2023-04-18T11:07:11.024Z,1306.00
2023-04-18T11:08:10.007Z,1312.00
2023-04-18T11:09:11.031Z,1313.00
2023-04-18T11:10:11.043Z,1311.00
2023-04-18T11:11:10.988Z,1297.00
2023-04-18T11:12:09.992Z,1293.00
2023-04-18T11:13:09.982Z,1286.00
2023-04-18T11:14:10.977Z,1219.00
2023-04-18T11:15:09.967Z,1221.00
2023-04-18T11:16:11.007Z,1217.00
2023-04-18T11:17:10.952Z,1215.00
2023-04-18T11:18:11.021Z,1209.00
2023-04-18T11:19:10.934Z,1206.00
2023-04-18T11:20:09.928Z,1198.00
2023-04-18T11:21:10.930Z,1189.00
2023-04-18T11:22:10.919Z,1182.00
2023-04-18T11:23:09.915Z,1166.00
2023-04-18T11:24:10.923Z,1137.00
2023-04-18T11:25:10.895Z,1134.00
2023-04-18T11:26:09.938Z,1095.00
2023-04-18T11:27:09.888Z,1043.00
2023-04-18T11:28:10.878Z,1045.00
2023-04-18T11:29:10.863Z,1025.00
2023-04-18T11:30:10.852Z,1034.00
2023-04-18T11:31:09.860Z,1045.00
2023-04-18T11:32:09.910Z,1046.00
2023-04-18T11:33:10.905Z,1046.00
2023-04-18T11:34:10.856Z,1042.00
2023-04-18T11:35:10.831Z,1038.00
2023-04-18T11:36:09.826Z,1023.00
2023-04-18T11:37:11.187Z,1008.00
2023-04-18T11:38:10.814Z,1003.00
2023-04-18T11:39:10.825Z,998.00
2023-04-18T11:40:09.798Z,995.00
2023-04-18T11:41:10.778Z,984.00
2023-04-18T11:42:11.242Z,981.00
2023-04-18T11:43:09.804Z,977.00
2023-04-18T11:44:09.843Z,974.00
2023-04-18T11:45:10.855Z,968.00
2023-04-18T11:46:10.894Z,966.00
2023-04-18T11:47:09.911Z,966.00
2023-04-18T11:48:10.026Z,962.00
2023-04-18T11:49:10.997Z,955.00
2023-04-18T11:50:11.027Z,949.00
2023-04-18T11:51:11.056Z,936.00
2023-04-18T11:52:10.099Z,924.00
2023-04-18T11:53:11.129Z,911.00
2023-04-18T11:54:10.163Z,905.00
2023-04-18T11:55:10.204Z,902.00
2023-04-18T11:56:10.250Z,895.00
2023-04-18T11:57:11.324Z,886.00
2023-04-18T11:58:10.374Z,883.00
2023-04-18T11:59:11.387Z,876.00
2023-04-18T12:00:10.509Z,868.00
2023-04-18T12:01:10.471Z,855.00
2023-04-18T12:02:16.738Z,846.00
2023-04-18T12:03:13.855Z,839.00
2023-04-18T12:04:11.769Z,832.00
2023-04-18T12:05:11.990Z,826.00
2023-04-18T12:06:11.580Z,823.00
2023-04-18T12:07:10.484Z,817.00
2023-04-18T12:08:11.556Z,815.00
2023-04-18T12:09:11.477Z,809.00
2023-04-18T12:10:11.460Z,802.00
2023-04-18T12:11:10.453Z,797.00
2023-04-18T12:12:11.463Z,791.00
2023-04-18T12:13:11.440Z,786.00
2023-04-18T12:14:11.555Z,778.00
2023-04-18T12:15:10.421Z,774.00
2023-04-18T12:16:10.503Z,765.00
2023-04-18T12:17:11.419Z,760.00
2023-04-18T12:18:11.404Z,761.00
2023-04-18T12:19:11.402Z,760.00
2023-04-18T12:20:11.395Z,756.00
2023-04-18T12:21:10.383Z,752.00
2023-04-18T12:22:11.420Z,745.00
2023-04-18T12:23:11.464Z,742.00
2023-04-18T12:24:11.665Z,740.00
2023-04-18T12:25:11.561Z,733.00
2023-04-18T12:26:10.619Z,730.00
2023-04-18T12:27:10.662Z,723.00
2023-04-18T12:28:11.909Z,716.00
2023-04-18T12:29:11.894Z,708.00
2023-04-18T12:30:11.872Z,700.00
2023-04-18T12:31:11.935Z,696.00
2023-04-18T12:32:11.918Z,701.00
2023-04-18T12:33:10.961Z,717.00
2023-04-18T12:34:11.105Z,713.00
2023-04-18T12:35:12.045Z,717.00
2023-04-18T12:36:12.100Z,734.00
2023-04-18T12:37:11.110Z,762.00
2023-04-18T12:38:12.155Z,781.00
2023-04-18T12:39:11.163Z,836.00
2023-04-18T12:40:12.236Z,847.00
2023-04-18T12:41:12.213Z,875.00
2023-04-18T12:42:12.246Z,895.00
2023-04-18T12:43:12.266Z,894.00
2023-04-18T12:44:11.330Z,937.00
2023-04-18T12:45:12.292Z,990.00
2023-04-18T12:46:12.398Z,987.00
2023-04-18T12:47:12.321Z,996.00
2023-04-18T12:48:11.298Z,1001.00
2023-04-18T12:49:12.290Z,996.00
2023-04-18T12:50:12.288Z,985.00
2023-04-18T12:51:12.309Z,980.00
2023-04-18T12:52:12.321Z,979.00
2023-04-18T12:53:12.315Z,981.00
2023-04-18T12:54:11.591Z,949.00
2023-04-18T12:55:11.371Z,918.00
2023-04-18T12:56:12.405Z,906.00
2023-04-18T12:57:11.443Z,905.00
2023-04-18T12:58:11.472Z,885.00
2023-04-18T12:59:12.770Z,920.00
2023-04-18T13:00:12.575Z,943.00
2023-04-18T13:01:11.627Z,932.00
2023-04-18T13:02:12.797Z,934.00
2023-04-18T13:03:13.415Z,940.00
2023-04-18T13:04:13.247Z,921.00
2023-04-18T13:05:11.732Z,911.00
2023-04-18T13:06:12.747Z,900.00
2023-04-18T13:07:12.759Z,905.00
2023-04-18T13:08:16.934Z,957.00
2023-04-18T13:09:12.883Z,960.00
2023-04-18T13:10:11.914Z,952.00
2023-04-18T13:11:12.771Z,891.00
2023-04-18T13:12:12.801Z,893.00
2023-04-18T13:13:11.792Z,908.00
2023-04-18T13:14:13.081Z,925.00
2023-04-18T13:15:12.739Z,939.00
2023-04-18T13:16:11.772Z,957.00
2023-04-18T13:17:12.721Z,957.00
2023-04-18T13:18:12.813Z,955.00
2023-04-18T13:19:13.007Z,918.00
2023-04-18T13:20:11.749Z,895.00
2023-04-18T13:21:12.707Z,879.00
2023-04-18T13:22:11.693Z,981.00
2023-04-18T13:23:12.709Z,962.00
2023-04-18T13:24:11.690Z,973.00
2023-04-18T13:25:12.685Z,967.00
2023-04-18T13:26:11.675Z,964.00
2023-04-18T13:27:11.672Z,963.00
2023-04-18T13:28:11.653Z,954.00
2023-04-18T13:29:12.855Z,949.00
2023-04-18T13:30:11.691Z,940.00
2023-04-18T13:31:13.269Z,948.00
2023-04-18T13:32:12.685Z,946.00
2023-04-18T13:33:11.747Z,943.00
2023-04-18T13:34:12.664Z,954.00
2023-04-18T13:35:11.620Z,951.00
2023-04-18T13:36:12.628Z,952.00
2023-04-18T13:37:11.638Z,957.00
2023-04-18T13:38:12.650Z,931.00
2023-04-18T13:39:12.947Z,935.00
2023-04-18T13:40:12.665Z,942.00
2023-04-18T13:41:13.270Z,950.00
2023-04-18T13:42:12.685Z,949.00
2023-04-18T13:43:11.701Z,952.00
2023-04-18T13:44:12.710Z,993.00
2023-04-18T13:45:12.717Z,999.00
2023-04-18T13:46:12.774Z,1002.00
2023-04-18T13:47:12.748Z,1011.00
2023-04-18T13:48:12.937Z,1009.00
2023-04-18T13:49:12.034Z,1015.00
2023-04-18T13:50:12.051Z,1014.00
2023-04-18T13:51:12.926Z,1012.00
2023-04-18T13:52:11.965Z,1010.00
2023-04-18T13:53:11.951Z,1012.00
2023-04-18T13:54:12.976Z,1013.00
2023-04-18T13:55:12.991Z,1014.00
2023-04-18T13:56:13.026Z,1012.00
2023-04-18T13:57:12.057Z,989.00
2023-04-18T13:58:13.089Z,1002.00
2023-04-18T13:59:13.263Z,1012.00
2023-04-18T14:00:12.135Z,1012.00
2023-04-18T14:01:12.224Z,1000.00
2023-04-18T14:02:12.401Z,967.00
2023-04-18T14:03:12.315Z,964.00
2023-04-18T14:04:13.426Z,972.00
2023-04-18T14:05:13.377Z,997.00
2023-04-18T14:06:13.343Z,1016.00
2023-04-18T14:07:13.277Z,1032.00
2023-04-18T14:08:13.284Z,1030.00
2023-04-18T14:09:13.599Z,1019.00
2023-04-18T14:10:12.302Z,1021.00
2023-04-18T14:11:13.317Z,1070.00
2023-04-18T14:12:13.328Z,1071.00
2023-04-18T14:13:12.352Z,1071.00
2023-04-18T14:14:12.383Z,1076.00
2023-04-18T14:15:13.412Z,1093.00
2023-04-18T14:16:13.540Z,1075.00
2023-04-18T14:17:13.514Z,1079.00
2023-04-18T14:18:13.547Z,1082.00
2023-04-18T14:19:12.837Z,1084.00
2023-04-18T14:20:12.613Z,1087.00
2023-04-18T14:21:13.633Z,1080.00
2023-04-18T14:22:13.686Z,1071.00
2023-04-18T14:23:12.717Z,906.00
2023-04-18T14:24:12.736Z,975.00
2023-04-18T14:25:12.783Z,1001.00
2023-04-18T14:26:12.834Z,1001.00
2023-04-18T14:27:13.866Z,949.00
2023-04-18T14:28:13.890Z,975.00
2023-04-18T14:29:14.196Z,970.00
2023-04-18T14:30:13.976Z,965.00
2023-04-18T14:31:14.072Z,920.00
2023-04-18T14:32:13.023Z,925.00
2023-04-18T14:33:14.082Z,916.00
2023-04-18T14:34:13.116Z,909.00
2023-04-18T14:35:13.164Z,895.00
2023-04-18T14:36:13.207Z,819.00
2023-04-18T14:37:14.200Z,811.00
2023-04-18T14:38:13.359Z,799.00
2023-04-18T14:39:14.612Z,799.00
2023-04-18T14:40:13.419Z,791.00
2023-04-18T14:41:13.472Z,786.00
2023-04-18T14:42:13.510Z,761.00
2023-04-18T14:43:14.590Z,749.00
2023-04-18T14:44:14.642Z,738.00
2023-04-18T14:45:14.694Z,728.00
2023-04-18T14:46:13.896Z,728.00
2023-04-18T14:47:13.783Z,721.00
2023-04-18T14:48:14.898Z,719.00
2023-04-18T14:49:14.066Z,714.00
2023-04-18T14:50:13.999Z,710.00
2023-04-18T14:51:15.035Z,707.00
2023-04-18T14:52:14.090Z,704.00
2023-04-18T14:53:15.198Z,692.00
2023-04-18T14:54:14.189Z,687.00
2023-04-18T14:55:14.256Z,684.00
2023-04-18T14:56:15.351Z,679.00
2023-04-18T14:57:14.397Z,675.00
2023-04-18T14:58:15.550Z,672.00
2023-04-18T14:59:16.685Z,666.00
2023-04-18T15:00:15.634Z,658.00
2023-04-18T15:01:15.635Z,649.00
2023-04-18T15:02:14.985Z,638.00
2023-04-18T15:03:14.924Z,634.00
2023-04-18T15:04:15.400Z,627.00
2023-04-18T15:05:15.975Z,621.00
2023-04-18T15:06:15.929Z,615.00
2023-04-18T15:07:15.984Z,611.00
2023-04-18T15:08:15.058Z,604.00
2023-04-18T15:09:15.244Z,595.00
2023-04-18T15:10:16.190Z,593.00
2023-04-18T15:11:16.242Z,592.00
2023-04-18T15:12:15.298Z,590.00
2023-04-18T15:13:16.369Z,587.00
2023-04-18T15:14:15.797Z,582.00
2023-04-18T15:15:15.481Z,576.00
2023-04-18T15:16:15.585Z,572.00
2023-04-18T15:17:15.589Z,569.00
2023-04-18T15:18:16.612Z,568.00
2023-04-18T15:19:15.663Z,565.00
2023-04-18T15:20:15.715Z,562.00
2023-04-18T15:21:15.734Z,558.00
2023-04-18T15:22:16.750Z,555.00
2023-04-18T15:23:16.811Z,555.00
2023-04-18T15:24:16.178Z,559.00
2023-04-18T15:25:15.891Z,606.00
2023-04-18T15:26:16.890Z,621.00
2023-04-18T15:27:15.974Z,622.00
2023-04-18T15:28:16.016Z,627.00
2023-04-18T15:29:16.054Z,631.00
